sensor_id;sensor_type;location;lat;lon;timestamp;pressure;altitude;pressure_sealevel;temperature;humidity
65054;BME280;51639;47.828;35.038;2023-03-20T00:26:33;100582.47;;;6.57;100.00
65054;BME280;51639;47.828;35.038;2023-03-20T00:56:45;100586.13;;;6.24;100.00
65054;BME280;51639;47.828;35.038;2023-03-20T01:11:49;100572.13;;;6.00;100.00
65054;BME280;51639;47.828;35.038;2023-03-20T01:26:52;100581.22;;;5.81;100.00
65054;BME280;51639;47.828;35.038;2023-03-20T01:41:55;100574.97;;;5.67;100.00
65054;BME280;51639;47.828;35.038;2023-03-20T01:57:09;100574.00;;;5.45;100.00
65054;BME280;51639;47.828;35.038;2023-03-20T02:12:15;100581.59;;;5.32;100.00
65054;BME280;51639;47.828;35.038;2023-03-20T03:13:27;100571.25;;;4.64;100.00
65054;BME280;51639;47.828;35.038;2023-03-20T03:28:39;100560.81;;;4.59;100.00
65054;BME280;51639;47.828;35.038;2023-03-20T03:43:56;100555.19;;;4.37;100.00
65054;BME280;51639;47.828;35.038;2023-03-20T03:59:05;100564.09;;;4.15;100.00
65054;BME280;51639;47.828;35.038;2023-03-20T04:14:09;100563.75;;;4.17;100.00
65054;BME280;51639;47.828;35.038;2023-03-20T04:29:12;100576.00;;;4.44;100.00
65054;BME280;51639;47.828;35.038;2023-03-20T04:44:14;100590.13;;;4.67;100.00
65054;BME280;51639;47.828;35.038;2023-03-20T04:59:16;100585.00;;;4.89;100.00
65054;BME280;51639;47.828;35.038;2023-03-20T05:14:18;100597.34;;;4.93;100.00
65054;BME280;51639;47.828;35.038;2023-03-20T05:29:20;100606.91;;;5.28;100.00
65054;BME280;51639;47.828;35.038;2023-03-20T05:44:22;100608.66;;;5.50;100.00
65054;BME280;51639;47.828;35.038;2023-03-20T05:59:24;100620.31;;;5.61;100.00
65054;BME280;51639;47.828;35.038;2023-03-20T06:14:26;100622.28;;;5.64;100.00
65054;BME280;51639;47.828;35.038;2023-03-20T06:29:28;100636.75;;;5.90;100.00
65054;BME280;51639;47.828;35.038;2023-03-20T06:44:30;100619.28;;;6.28;100.00
65054;BME280;51639;47.828;35.038;2023-03-20T06:59:32;100613.28;;;6.63;100.00
65054;BME280;51639;47.828;35.038;2023-03-20T07:14:34;100598.06;;;7.16;100.00
65054;BME280;51639;47.828;35.038;2023-03-20T07:29:36;100600.44;;;7.85;100.00
65054;BME280;51639;47.828;35.038;2023-03-20T07:44:38;100582.81;;;10.31;100.00
65054;BME280;51639;47.828;35.038;2023-03-20T07:59:40;100606.81;;;10.36;100.00
65054;BME280;51639;47.828;35.038;2023-03-20T08:14:42;100604.16;;;9.87;100.00
65054;BME280;51639;47.828;35.038;2023-03-20T08:29:44;100604.59;;;9.82;100.00
65054;BME280;51639;47.828;35.038;2023-03-20T08:44:47;100584.03;;;10.26;100.00
65054;BME280;51639;47.828;35.038;2023-03-20T08:59:48;100576.16;;;10.69;100.00
65054;BME280;51639;47.828;35.038;2023-03-20T09:14:50;100560.09;;;12.06;100.00
65054;BME280;51639;47.828;35.038;2023-03-20T09:29:52;100549.38;;;13.75;100.00
65054;BME280;51639;47.828;35.038;2023-03-20T09:45:04;100550.38;;;14.26;98.66
65054;BME280;51639;47.828;35.038;2023-03-20T10:00:16;100536.94;;;14.74;100.00
65054;BME280;51639;47.828;35.038;2023-03-20T10:15:44;100535.31;;;14.63;97.20
65054;BME280;51639;47.828;35.038;2023-03-20T11:01:04;100513.56;;;13.44;100.00
65054;BME280;51639;47.828;35.038;2023-03-20T11:16:30;100499.16;;;13.44;100.00
65054;BME280;51639;47.828;35.038;2023-03-20T11:31:38;100485.31;;;13.67;100.00
65054;BME280;51639;47.828;35.038;2023-03-20T11:46:41;100473.66;;;14.88;100.00
65054;BME280;51639;47.828;35.038;2023-03-20T12:01:49;100474.97;;;13.29;100.00
65054;BME280;51639;47.828;35.038;2023-03-20T12:17:33;100466.94;;;12.90;100.00
65054;BME280;51639;47.828;35.038;2023-03-20T13:03:22;100431.06;;;11.20;100.00
65054;BME280;51639;47.828;35.038;2023-03-20T13:34:01;100408.38;;;11.07;100.00
65054;BME280;51639;47.828;35.038;2023-03-20T13:49:14;100407.06;;;10.92;100.00
65054;BME280;51639;47.828;35.038;2023-03-20T14:04:21;100401.13;;;11.01;100.00
65054;BME280;51639;47.828;35.038;2023-03-20T14:19:28;100395.78;;;10.93;100.00
65054;BME280;51639;47.828;35.038;2023-03-20T14:34:48;100377.78;;;10.80;100.00
65054;BME280;51639;47.828;35.038;2023-03-20T14:49:53;100370.22;;;10.91;100.00
65054;BME280;51639;47.828;35.038;2023-03-20T15:05:01;100356.44;;;10.82;100.00
65054;BME280;51639;47.828;35.038;2023-03-20T15:20:13;100361.53;;;10.53;100.00
65054;BME280;51639;47.828;35.038;2023-03-20T15:35:18;100362.16;;;10.07;100.00
65054;BME280;51639;47.828;35.038;2023-03-20T15:50:38;100364.75;;;9.87;100.00
65054;BME280;51639;47.828;35.038;2023-03-20T16:05:50;100380.56;;;9.62;100.00
65054;BME280;51639;47.828;35.038;2023-03-20T16:21:01;100400.16;;;9.39;100.00
65054;BME280;51639;47.828;35.038;2023-03-20T16:36:06;100410.47;;;9.13;100.00
65054;BME280;51639;47.828;35.038;2023-03-20T16:51:37;100407.66;;;8.76;100.00
65054;BME280;51639;47.828;35.038;2023-03-20T17:06:46;100419.41;;;8.51;100.00
65054;BME280;51639;47.828;35.038;2023-03-20T17:21:55;100418.84;;;8.08;100.00
65054;BME280;51639;47.828;35.038;2023-03-20T17:36:59;100426.31;;;7.79;100.00
65054;BME280;51639;47.828;35.038;2023-03-20T17:52:04;100419.00;;;7.62;100.00
65054;BME280;51639;47.828;35.038;2023-03-20T18:07:12;100409.78;;;7.49;100.00
65054;BME280;51639;47.828;35.038;2023-03-20T18:22:17;100413.69;;;7.30;100.00
65054;BME280;51639;47.828;35.038;2023-03-20T18:37:19;100424.50;;;7.12;100.00
65054;BME280;51639;47.828;35.038;2023-03-20T18:52:24;100413.69;;;6.95;100.00
65054;BME280;51639;47.828;35.038;2023-03-20T19:07:26;100402.91;;;6.91;100.00
65054;BME280;51639;47.828;35.038;2023-03-20T19:22:28;100397.50;;;6.70;100.00
65054;BME280;51639;47.828;35.038;2023-03-20T19:37:33;100394.00;;;6.62;100.00
65054;BME280;51639;47.828;35.038;2023-03-20T19:52:38;100379.75;;;6.62;100.00
65054;BME280;51639;47.828;35.038;2023-03-20T20:07:41;100370.50;;;6.48;100.00
65054;BME280;51639;47.828;35.038;2023-03-20T20:23:14;100368.97;;;6.47;100.00
65054;BME280;51639;47.828;35.038;2023-03-20T20:38:16;100358.97;;;6.59;100.00
65054;BME280;51639;47.828;35.038;2023-03-20T20:53:38;100355.88;;;6.49;100.00
65054;BME280;51639;47.828;35.038;2023-03-20T21:08:40;100342.00;;;6.62;100.00
65054;BME280;51639;47.828;35.038;2023-03-20T21:23:43;100339.69;;;6.64;100.00
65054;BME280;51639;47.828;35.038;2023-03-20T21:38:45;100322.75;;;6.60;100.00
65054;BME280;51639;47.828;35.038;2023-03-20T21:54:07;100324.25;;;6.39;100.00
65054;BME280;51639;47.828;35.038;2023-03-20T22:09:31;100320.41;;;6.44;100.00
65054;BME280;51639;47.828;35.038;2023-03-20T22:24:53;100319.25;;;6.41;100.00
65054;BME280;51639;47.828;35.038;2023-03-20T22:40:18;100323.50;;;6.32;100.00
65054;BME280;51639;47.828;35.038;2023-03-20T22:55:42;100306.53;;;6.24;100.00
65054;BME280;51639;47.828;35.038;2023-03-20T23:10:47;100309.59;;;6.12;100.00
65054;BME280;51639;47.828;35.038;2023-03-20T23:41:08;100284.91;;;5.92;100.00
65054;BME280;51639;47.828;35.038;2023-03-20T23:56:12;100284.06;;;5.74;100.00
